createdAt,value
2023-03-21T00:02:12.883Z,77.31
2023-03-21T00:07:31.075Z,77.49
2023-03-21T00:10:08.688Z,77.28
2023-03-21T00:12:42.710Z,77.54
2023-03-21T00:15:20.578Z,78.00
2023-03-21T00:17:51.082Z,77.87
2023-03-21T00:20:21.622Z,77.87
2023-03-21T00:22:49.924Z,78.23
2023-03-21T00:25:18.430Z,78.27
2023-03-21T00:28:05.293Z,78.05
2023-03-21T00:30:36.144Z,78.57
2023-03-21T00:33:21.585Z,78.20
2023-03-21T00:36:02.276Z,78.15
2023-03-21T00:38:31.294Z,78.30
2023-03-21T00:41:04.610Z,78.48
2023-03-21T00:43:39.019Z,78.31
2023-03-21T00:46:08.982Z,78.58
2023-03-21T00:48:37.681Z,79.20
2023-03-21T00:51:13.446Z,79.15
2023-03-21T00:53:41.681Z,79.17
2023-03-21T00:56:10.303Z,79.33
2023-03-21T00:58:38.631Z,79.74
2023-03-21T01:01:09.573Z,80.13
2023-03-21T01:03:42.747Z,80.32
2023-03-21T01:06:13.386Z,80.76
2023-03-21T01:08:58.351Z,81.18
2023-03-21T01:11:29.316Z,81.39
2023-03-21T01:14:14.800Z,82.06
2023-03-21T01:16:48.997Z,81.95
2023-03-21T01:19:25.635Z,82.05
2023-03-21T01:21:57.838Z,82.08
2023-03-21T01:24:27.390Z,82.42
2023-03-21T01:26:55.539Z,82.54
2023-03-21T01:29:29.431Z,82.73
2023-03-21T01:31:58.920Z,83.01
2023-03-21T01:34:30.271Z,83.38
2023-03-21T01:36:59.150Z,83.45
2023-03-21T01:39:27.630Z,83.86
2023-03-21T01:41:56.034Z,84.05
2023-03-21T01:44:24.462Z,84.17
2023-03-21T01:49:46.925Z,84.70
2023-03-21T01:52:29.646Z,84.72
2023-03-21T01:55:03.938Z,84.82
2023-03-21T01:57:43.498Z,84.82
2023-03-21T02:00:18.478Z,84.85
2023-03-21T02:02:56.191Z,84.93
2023-03-21T02:05:31.293Z,85.05
2023-03-21T02:08:00.482Z,85.30
2023-03-21T02:10:29.457Z,85.40
2023-03-21T02:12:59.902Z,85.33
2023-03-21T02:15:28.654Z,85.36
2023-03-21T02:18:00.483Z,85.40
2023-03-21T02:20:46.163Z,85.42
2023-03-21T02:23:50.012Z,85.40
2023-03-21T02:26:52.518Z,85.48
2023-03-21T02:29:56.982Z,85.58
2023-03-21T02:32:38.240Z,85.87
2023-03-21T02:35:26.865Z,85.87
2023-03-21T02:38:00.929Z,85.87
2023-03-21T02:40:48.023Z,85.90
2023-03-21T02:43:24.363Z,85.99
2023-03-21T02:45:55.516Z,86.12
2023-03-21T02:48:33.169Z,86.12
2023-03-21T02:51:08.095Z,86.17
2023-03-21T02:53:41.387Z,86.23
2023-03-21T02:56:11.520Z,86.37
2023-03-21T02:58:40.756Z,86.43
2023-03-21T03:01:09.580Z,86.45
2023-03-21T03:03:39.741Z,86.52
2023-03-21T03:06:15.232Z,86.65
2023-03-21T03:09:02.250Z,86.73
2023-03-21T03:11:33.206Z,86.86
2023-03-21T03:14:35.798Z,86.90
2023-03-21T03:17:11.046Z,86.93
2023-03-21T03:19:50.662Z,87.01
2023-03-21T03:22:24.830Z,87.08
2023-03-21T03:24:59.555Z,87.18
2023-03-21T03:27:32.316Z,87.23
2023-03-21T03:30:02.284Z,87.32
2023-03-21T03:32:35.932Z,87.37
2023-03-21T03:35:04.862Z,87.44
2023-03-21T03:37:35.314Z,87.53
2023-03-21T03:40:07.924Z,87.60
2023-03-21T03:42:38.175Z,87.64
2023-03-21T03:45:09.226Z,87.72
2023-03-21T03:47:54.180Z,87.79
2023-03-21T03:50:28.629Z,87.87
2023-03-21T03:53:07.128Z,87.96
2023-03-21T03:55:40.636Z,88.00
2023-03-21T03:58:21.308Z,88.04
2023-03-21T04:00:51.888Z,88.20
2023-03-21T04:03:20.202Z,88.20
2023-03-21T04:05:48.532Z,88.28
2023-03-21T04:08:18.125Z,88.40
2023-03-21T04:10:47.562Z,88.54
2023-03-21T04:13:16.515Z,88.80
2023-03-21T04:15:45.749Z,88.94
2023-03-21T04:18:14.128Z,89.22
2023-03-21T04:20:44.973Z,89.50
2023-03-21T04:23:13.183Z,89.75
2023-03-21T04:25:53.984Z,89.94
2023-03-21T04:28:26.091Z,90.15
2023-03-21T04:31:03.557Z,90.42
2023-03-21T04:33:38.389Z,90.59
2023-03-21T04:36:09.611Z,90.73
2023-03-21T04:38:38.145Z,90.99
2023-03-21T04:41:07.648Z,91.11
2023-03-21T04:43:37.477Z,91.19
2023-03-21T04:46:06.382Z,91.26
2023-03-21T04:48:34.548Z,91.42
2023-03-21T04:51:05.115Z,91.52
2023-03-21T04:53:33.323Z,91.65
2023-03-21T04:56:01.876Z,91.78
2023-03-21T04:58:30.537Z,91.87
2023-03-21T05:01:02.642Z,91.94
2023-03-21T05:03:34.842Z,92.10
2023-03-21T05:06:03.316Z,92.24
2023-03-21T05:08:33.660Z,92.34
2023-03-21T05:11:01.998Z,92.44
2023-03-21T05:13:30.629Z,92.53
2023-03-21T05:16:00.430Z,92.63
2023-03-21T05:18:30.673Z,92.72
2023-03-21T05:20:58.888Z,92.82
2023-03-21T05:23:32.067Z,92.83
2023-03-21T05:26:01.200Z,92.88
2023-03-21T05:28:31.564Z,92.95
2023-03-21T05:31:02.506Z,93.00
2023-03-21T05:33:31.918Z,93.12
2023-03-21T05:36:00.256Z,93.14
2023-03-21T05:38:28.686Z,93.22
2023-03-21T05:40:57.524Z,93.35
2023-03-21T05:43:25.664Z,93.35
2023-03-21T05:45:55.070Z,93.41
2023-03-21T05:48:25.794Z,93.35
2023-03-21T05:50:55.182Z,93.34
2023-03-21T05:53:23.589Z,93.35
2023-03-21T05:55:51.810Z,93.47
2023-03-21T05:58:21.084Z,93.49
2023-03-21T06:00:49.241Z,93.55
2023-03-21T06:03:19.622Z,93.51
2023-03-21T06:05:49.511Z,93.88
2023-03-21T06:08:17.570Z,93.99
2023-03-21T06:10:45.987Z,94.04
2023-03-21T06:13:15.833Z,94.26
2023-03-21T06:15:44.111Z,94.08
2023-03-21T06:18:12.484Z,94.22
2023-03-21T06:20:40.705Z,94.39
2023-03-21T06:23:11.154Z,94.33
2023-03-21T06:25:39.432Z,94.02
2023-03-21T06:28:09.941Z,94.24
2023-03-21T06:30:38.389Z,94.32
2023-03-21T06:33:10.583Z,94.04
2023-03-21T06:35:39.064Z,93.88
2023-03-21T06:38:08.502Z,94.21
2023-03-21T06:40:39.356Z,94.12
2023-03-21T06:43:07.536Z,94.23
2023-03-21T06:45:36.548Z,93.99
2023-03-21T06:48:09.162Z,93.95
2023-03-21T06:50:37.519Z,94.08
2023-03-21T06:53:06.714Z,94.22
2023-03-21T06:55:35.679Z,94.23
2023-03-21T06:58:05.306Z,93.61
2023-03-21T07:00:33.717Z,93.50
2023-03-21T07:03:02.304Z,93.45
2023-03-21T07:05:30.650Z,93.41
2023-03-21T07:08:01.172Z,93.48
2023-03-21T07:10:29.360Z,93.48
2023-03-21T07:12:59.651Z,93.51
2023-03-21T07:15:29.758Z,93.60
2023-03-21T07:17:58.929Z,93.67
2023-03-21T07:20:27.325Z,93.83
2023-03-21T07:22:55.509Z,93.58
2023-03-21T07:25:24.019Z,93.53
2023-03-21T07:27:54.262Z,93.48
2023-03-21T07:30:22.743Z,93.55
2023-03-21T07:32:53.393Z,93.63
2023-03-21T07:35:21.561Z,93.46
2023-03-21T07:37:50.810Z,93.39
2023-03-21T07:40:20.180Z,93.58
2023-03-21T07:42:50.291Z,93.40
2023-03-21T07:45:23.376Z,93.33
2023-03-21T07:47:52.795Z,93.32
2023-03-21T07:50:21.759Z,93.39
2023-03-21T07:52:58.385Z,93.44
2023-03-21T07:55:26.655Z,93.15
2023-03-21T07:57:54.858Z,93.02
2023-03-21T08:00:24.123Z,93.06
2023-03-21T08:02:58.550Z,92.94
2023-03-21T08:05:29.249Z,92.85
2023-03-21T08:07:57.643Z,92.76
2023-03-21T08:10:26.411Z,92.50
2023-03-21T08:12:55.894Z,92.07
2023-03-21T08:15:25.713Z,91.85
2023-03-21T08:17:55.427Z,91.82
2023-03-21T08:20:24.101Z,91.63
2023-03-21T08:22:52.492Z,91.73
2023-03-21T08:25:22.981Z,91.40
2023-03-21T08:27:51.846Z,91.14
2023-03-21T08:30:21.707Z,91.08
2023-03-21T08:32:50.044Z,91.22
2023-03-21T08:35:20.669Z,91.23
2023-03-21T08:37:48.925Z,91.02
2023-03-21T08:40:18.534Z,91.05
2023-03-21T08:42:47.316Z,90.86
2023-03-21T08:45:17.508Z,90.84
2023-03-21T08:47:46.172Z,90.62
2023-03-21T08:50:16.637Z,90.74
2023-03-21T08:52:46.155Z,90.85
2023-03-21T08:55:16.292Z,90.54
2023-03-21T08:57:45.077Z,90.56
2023-03-21T09:00:15.604Z,90.40
2023-03-21T09:02:45.358Z,90.11
2023-03-21T09:05:14.889Z,89.89
2023-03-21T09:07:43.301Z,89.72
2023-03-21T09:10:20.506Z,89.46
2023-03-21T09:12:52.753Z,89.14
2023-03-21T09:15:21.928Z,88.85
2023-03-21T09:17:53.206Z,88.38
2023-03-21T09:20:26.245Z,88.36
2023-03-21T09:22:55.522Z,88.46
2023-03-21T09:25:25.285Z,88.00
2023-03-21T09:27:53.771Z,88.05
2023-03-21T09:30:24.797Z,88.33
2023-03-21T09:32:55.827Z,88.18
2023-03-21T09:35:25.000Z,87.93
2023-03-21T09:37:53.343Z,87.89
2023-03-21T09:40:29.165Z,87.40
2023-03-21T09:43:00.047Z,87.12
2023-03-21T09:45:35.179Z,86.83
2023-03-21T09:48:03.700Z,86.78
2023-03-21T09:50:34.184Z,86.29
2023-03-21T09:53:06.168Z,85.10
2023-03-21T09:55:38.576Z,85.05
2023-03-21T09:58:10.993Z,85.01
2023-03-21T10:00:43.520Z,85.16
2023-03-21T10:03:20.248Z,84.87
2023-03-21T10:05:50.640Z,84.66
2023-03-21T10:08:24.852Z,84.35
2023-03-21T10:10:57.375Z,84.38
2023-03-21T10:13:28.196Z,84.30
2023-03-21T10:15:58.246Z,84.50
2023-03-21T10:18:28.994Z,84.56
2023-03-21T10:20:58.799Z,84.10
2023-03-21T10:23:29.559Z,83.87
2023-03-21T10:26:02.175Z,83.38
2023-03-21T10:28:46.238Z,83.19
2023-03-21T10:31:22.340Z,82.73
2023-03-21T10:33:51.177Z,82.68
2023-03-21T10:36:22.783Z,82.54
2023-03-21T10:38:52.750Z,82.63
2023-03-21T10:41:22.221Z,82.90
2023-03-21T10:44:07.345Z,82.83
2023-03-21T10:46:36.526Z,82.01
2023-03-21T10:49:06.044Z,81.60
2023-03-21T10:51:37.107Z,81.61
2023-03-21T10:54:07.609Z,81.45
2023-03-21T10:56:39.413Z,81.47
2023-03-21T10:59:09.323Z,81.63
2023-03-21T11:01:40.010Z,80.83
2023-03-21T11:04:13.889Z,80.44
2023-03-21T11:06:43.327Z,80.50
2023-03-21T11:09:17.329Z,79.61
2023-03-21T11:11:54.139Z,78.84
2023-03-21T11:14:28.462Z,79.34
2023-03-21T11:16:56.962Z,78.32
2023-03-21T11:19:32.194Z,78.35
2023-03-21T11:22:03.803Z,77.91
2023-03-21T11:24:32.940Z,76.67
2023-03-21T11:27:08.299Z,75.59
2023-03-21T11:29:39.038Z,75.52
2023-03-21T11:32:12.416Z,75.17
2023-03-21T11:34:47.006Z,75.41
2023-03-21T11:37:21.825Z,75.50
2023-03-21T11:39:55.965Z,75.84
2023-03-21T11:42:30.955Z,75.05
2023-03-21T11:45:03.236Z,74.69
2023-03-21T11:47:32.668Z,74.66
2023-03-21T11:50:05.325Z,75.07
2023-03-21T11:52:40.786Z,74.61
2023-03-21T11:55:34.498Z,75.17
2023-03-21T11:58:14.876Z,74.80
2023-03-21T12:00:50.225Z,74.79
2023-03-21T12:03:48.496Z,74.71
2023-03-21T12:06:24.099Z,76.07
2023-03-21T12:08:58.920Z,76.78
2023-03-21T12:11:33.439Z,76.12
2023-03-21T12:14:07.969Z,77.27
2023-03-21T12:16:50.401Z,75.50
2023-03-21T12:19:36.350Z,74.33
2023-03-21T12:22:11.798Z,75.66
2023-03-21T12:24:43.098Z,74.69
2023-03-21T12:27:17.818Z,73.44
2023-03-21T12:30:15.296Z,75.13
2023-03-21T12:32:53.456Z,73.30
2023-03-21T12:35:33.687Z,73.80
2023-03-21T12:38:08.187Z,74.24
2023-03-21T12:40:53.028Z,74.98
2023-03-21T12:43:37.621Z,74.96
2023-03-21T12:46:12.535Z,75.36
2023-03-21T12:48:45.415Z,75.58
2023-03-21T12:51:17.595Z,75.81
2023-03-21T12:54:01.910Z,76.08
2023-03-21T12:56:33.686Z,75.88
2023-03-21T12:59:09.799Z,76.21
2023-03-21T13:01:40.860Z,76.67
2023-03-21T13:04:22.715Z,77.03
2023-03-21T13:06:53.747Z,77.15
2023-03-21T13:09:36.683Z,77.67
2023-03-21T13:12:18.435Z,77.41
2023-03-21T13:15:01.740Z,77.43
2023-03-21T13:17:35.588Z,76.82
2023-03-21T13:20:12.552Z,77.16
2023-03-21T13:22:40.867Z,77.10
2023-03-21T13:25:19.121Z,76.97
2023-03-21T13:27:55.984Z,77.25
2023-03-21T13:30:27.591Z,77.31
2023-03-21T13:33:07.336Z,77.53
2023-03-21T13:35:38.778Z,78.24
2023-03-21T13:38:13.422Z,78.04
2023-03-21T13:40:45.155Z,78.38
2023-03-21T13:43:35.503Z,78.50
2023-03-21T13:46:10.195Z,78.01
2023-03-21T13:48:59.729Z,78.14
2023-03-21T13:51:47.746Z,77.58
2023-03-21T13:54:29.764Z,77.11
2023-03-21T13:57:01.582Z,76.84
2023-03-21T13:59:41.881Z,76.60
2023-03-21T14:02:27.911Z,76.22
2023-03-21T14:05:05.453Z,76.21
2023-03-21T14:07:35.354Z,76.43
2023-03-21T14:10:06.695Z,76.46
2023-03-21T14:12:39.210Z,76.58
2023-03-21T14:15:17.168Z,76.74
2023-03-21T14:17:56.847Z,76.85
2023-03-21T14:20:28.496Z,76.73
2023-03-21T14:23:00.730Z,76.81
2023-03-21T14:25:40.932Z,76.68
2023-03-21T14:28:18.782Z,77.14
2023-03-21T14:30:48.763Z,76.71
2023-03-21T14:33:26.187Z,76.65
2023-03-21T14:35:58.786Z,76.74
2023-03-21T14:38:28.981Z,77.11
2023-03-21T14:40:58.998Z,77.22
2023-03-21T14:43:27.537Z,77.23
2023-03-21T14:45:57.817Z,77.53
2023-03-21T14:48:32.258Z,77.52
2023-03-21T14:51:07.502Z,77.92
2023-03-21T14:53:39.762Z,77.89
2023-03-21T14:56:10.870Z,77.68
2023-03-21T14:58:42.162Z,77.61
2023-03-21T15:01:16.431Z,77.63
2023-03-21T15:03:46.630Z,77.61
2023-03-21T15:06:17.527Z,77.52
2023-03-21T15:08:55.764Z,77.38
2023-03-21T15:11:31.951Z,77.48
2023-03-21T15:14:02.136Z,77.59
2023-03-21T15:16:31.774Z,77.49
2023-03-21T15:19:01.947Z,77.82
2023-03-21T15:21:38.716Z,78.14
2023-03-21T15:24:13.557Z,78.17
2023-03-21T15:26:46.379Z,78.43
2023-03-21T15:29:16.311Z,78.48
2023-03-21T15:31:48.270Z,78.75
2023-03-21T15:34:22.458Z,79.07
2023-03-21T15:36:58.152Z,79.16
2023-03-21T15:39:29.734Z,79.11
2023-03-21T15:42:01.180Z,79.29
2023-03-21T15:44:30.551Z,79.22
2023-03-21T15:47:01.558Z,79.53
2023-03-21T15:49:32.426Z,79.60
2023-03-21T15:52:09.061Z,79.86
2023-03-21T15:54:44.569Z,79.79
2023-03-21T15:57:26.694Z,79.72
2023-03-21T15:59:57.420Z,79.71
2023-03-21T16:02:27.161Z,79.57
2023-03-21T16:05:00.128Z,79.55
2023-03-21T16:07:32.283Z,79.53
2023-03-21T16:10:05.598Z,79.62
2023-03-21T16:12:34.305Z,79.51
2023-03-21T16:15:02.436Z,79.34
2023-03-21T16:17:37.787Z,79.39
2023-03-21T16:23:17.728Z,79.42
2023-03-21T16:25:47.495Z,79.42
2023-03-21T16:28:17.408Z,79.56
2023-03-21T16:30:46.414Z,79.61
2023-03-21T16:33:16.430Z,79.63
2023-03-21T16:35:45.585Z,79.52
2023-03-21T16:38:15.721Z,79.69
2023-03-21T16:40:47.022Z,79.75
2023-03-21T16:43:17.583Z,79.74
2023-03-21T16:45:51.451Z,79.77
2023-03-21T16:48:22.692Z,79.93
2023-03-21T16:50:51.382Z,79.87
2023-03-21T16:53:23.172Z,79.99
2023-03-21T16:55:51.889Z,79.94
2023-03-21T16:58:20.050Z,79.97
2023-03-21T17:00:49.685Z,79.94
2023-03-21T17:03:19.447Z,80.15
2023-03-21T17:05:47.881Z,80.12
2023-03-21T17:08:21.034Z,80.15
2023-03-21T17:10:53.131Z,80.15
2023-03-21T17:13:21.833Z,80.16
2023-03-21T17:15:52.338Z,80.24
2023-03-21T17:18:22.063Z,80.26
2023-03-21T17:20:50.015Z,80.50
2023-03-21T17:23:20.181Z,80.45
2023-03-21T17:25:50.044Z,80.57
2023-03-21T17:28:18.700Z,80.48
2023-03-21T17:30:48.660Z,80.70
2023-03-21T17:33:16.745Z,80.78
2023-03-21T17:35:45.022Z,80.91
2023-03-21T17:38:16.046Z,80.96
2023-03-21T17:40:44.202Z,81.10
2023-03-21T17:43:16.745Z,81.01
2023-03-21T17:45:45.041Z,81.28
2023-03-21T17:48:13.387Z,81.36
2023-03-21T17:50:41.809Z,81.58
2023-03-21T17:53:10.404Z,81.48
2023-03-21T17:55:41.619Z,81.69
2023-03-21T17:58:17.779Z,81.78
2023-03-21T18:00:47.486Z,81.79
2023-03-21T18:03:17.810Z,81.84
2023-03-21T18:05:47.172Z,81.77
2023-03-21T18:08:18.032Z,81.82
2023-03-21T18:10:53.139Z,81.93
2023-03-21T18:13:23.088Z,81.92
2023-03-21T18:15:54.952Z,81.93
2023-03-21T18:18:23.607Z,81.90
2023-03-21T18:20:54.305Z,81.97
2023-03-21T18:23:23.813Z,81.99
2023-03-21T18:25:53.060Z,82.03
2023-03-21T18:28:24.801Z,81.94
2023-03-21T18:31:09.704Z,81.97
2023-03-21T18:33:42.007Z,82.12
2023-03-21T18:36:26.326Z,82.12
2023-03-21T18:38:57.208Z,82.18
2023-03-21T18:41:26.132Z,82.43
2023-03-21T18:44:05.187Z,82.81
2023-03-21T18:46:39.709Z,82.96
2023-03-21T18:50:01.663Z,83.10
2023-03-21T18:52:04.247Z,83.28
2023-03-21T18:54:37.426Z,83.39
2023-03-21T19:00:01.375Z,83.72
2023-03-21T19:02:29.634Z,84.12
2023-03-21T19:04:59.411Z,84.39
2023-03-21T19:07:35.104Z,84.79
2023-03-21T19:10:17.413Z,85.33
2023-03-21T19:12:49.796Z,85.49
2023-03-21T19:18:46.032Z,86.12
2023-03-21T19:26:48.732Z,86.98
2023-03-21T19:29:17.674Z,87.28
2023-03-21T19:31:56.791Z,87.61
2023-03-21T19:34:24.993Z,87.82
2023-03-21T19:36:57.600Z,88.11
2023-03-21T19:39:26.232Z,88.49
2023-03-21T19:42:08.994Z,88.72
2023-03-21T19:44:42.963Z,89.08
2023-03-21T19:47:13.479Z,89.39
2023-03-21T19:50:34.479Z,89.69
2023-03-21T19:52:32.103Z,89.98
2023-03-21T19:55:00.444Z,90.27
2023-03-21T19:57:29.240Z,90.48
2023-03-21T19:59:57.280Z,90.69
2023-03-21T20:02:35.611Z,90.86
2023-03-21T20:05:05.924Z,91.04
2023-03-21T20:07:35.560Z,91.23
2023-03-21T20:10:04.060Z,91.45
2023-03-21T20:12:33.406Z,91.67
2023-03-21T20:15:15.737Z,91.87
2023-03-21T20:17:46.533Z,92.08
2023-03-21T20:20:18.009Z,92.25
2023-03-21T20:23:07.724Z,92.47
2023-03-21T20:25:38.176Z,92.66
2023-03-21T20:28:23.816Z,92.82
2023-03-21T20:30:59.520Z,93.00
2023-03-21T20:33:33.260Z,93.10
2023-03-21T20:39:01.876Z,93.35
2023-03-21T20:41:30.347Z,93.48
2023-03-21T20:47:05.542Z,93.71
2023-03-21T20:49:35.077Z,93.83
2023-03-21T20:54:57.402Z,94.08
2023-03-21T20:57:27.192Z,94.21
2023-03-21T20:59:55.617Z,94.31
2023-03-21T21:02:24.418Z,94.45
2023-03-21T21:05:24.263Z,94.58
2023-03-21T21:07:49.088Z,94.65
2023-03-21T21:10:18.729Z,94.74
2023-03-21T21:12:47.253Z,94.81
2023-03-21T21:15:19.336Z,94.86
2023-03-21T21:18:06.667Z,94.97
2023-03-21T21:20:38.563Z,95.12
2023-03-21T21:23:09.607Z,95.19
2023-03-21T21:25:38.322Z,95.29
2023-03-21T21:28:09.427Z,95.35
2023-03-21T21:30:41.423Z,95.41
2023-03-21T21:33:10.657Z,95.49
2023-03-21T21:35:47.761Z,95.53
2023-03-21T21:38:17.614Z,95.60
2023-03-21T21:40:55.215Z,95.64
2023-03-21T21:43:23.398Z,95.76
2023-03-21T21:45:52.529Z,95.81
2023-03-21T21:48:21.522Z,95.87
2023-03-21T21:50:54.118Z,95.90
2023-03-21T21:53:24.206Z,95.98
2023-03-21T21:55:53.350Z,96.01
2023-03-21T21:58:21.989Z,96.02
2023-03-21T22:00:56.663Z,96.09
2023-03-21T22:03:28.975Z,96.14
2023-03-21T22:06:17.113Z,96.17
2023-03-21T22:08:54.496Z,96.20
2023-03-21T22:11:25.893Z,96.25
2023-03-21T22:13:54.248Z,96.31
2023-03-21T22:16:23.293Z,96.33
2023-03-21T22:18:54.231Z,96.40
2023-03-21T22:21:25.966Z,96.43
2023-03-21T22:23:54.841Z,96.46
2023-03-21T22:26:23.155Z,96.45
2023-03-21T22:28:52.334Z,96.50
2023-03-21T22:31:20.789Z,96.54
2023-03-21T22:33:50.313Z,96.55
2023-03-21T22:36:20.298Z,96.58
2023-03-21T22:38:49.810Z,96.52
2023-03-21T22:41:20.060Z,96.57
2023-03-21T22:43:49.924Z,96.57
2023-03-21T22:46:21.137Z,96.55
2023-03-21T22:48:49.882Z,96.56
2023-03-21T22:51:18.162Z,96.59
2023-03-21T22:53:46.424Z,96.58
2023-03-21T22:56:16.881Z,96.59
2023-03-21T22:58:45.063Z,96.63
2023-03-21T23:01:16.350Z,96.62
2023-03-21T23:03:44.533Z,96.63
2023-03-21T23:06:12.815Z,96.63
2023-03-21T23:08:43.994Z,96.54
2023-03-21T23:11:13.465Z,96.57
2023-03-21T23:13:46.258Z,96.60
2023-03-21T23:16:16.879Z,96.60
2023-03-21T23:18:45.560Z,96.61
2023-03-21T23:21:16.517Z,96.63
2023-03-21T23:23:50.430Z,96.63
2023-03-21T23:26:20.256Z,96.63
2023-03-21T23:28:57.296Z,96.61
2023-03-21T23:31:29.811Z,96.60
2023-03-21T23:34:00.625Z,96.59
2023-03-21T23:36:30.098Z,96.58
2023-03-21T23:38:59.054Z,96.60
2023-03-21T23:41:29.640Z,96.53
2023-03-21T23:44:02.331Z,96.55
2023-03-21T23:46:34.417Z,96.60
2023-03-21T23:49:04.567Z,96.61
2023-03-21T23:51:37.187Z,96.58
2023-03-21T23:54:09.366Z,96.60
2023-03-21T23:56:39.530Z,96.65
2023-03-21T23:59:10.021Z,96.74
